Avioradar koristi kolačiće da bi Vam omogućio jednostavnije i ugodnije korištenje stranice. 

AVIORADAR - Croatian aviation website

METAR & TAF

[Source: ADDS]
METAR
LDZA 171930Z 26006KT 9999 FEW006 15/13 Q1015 NOSIG =
LDZA 171725Z 1718/1818 20004KT 9999 SCT008 SCT045 TX20/1812Z TN12/1804Z PROB30 TEMPO 1722/1802 1500 BCFG BECMG 1723/1802 0200 FG VV001 PROB30 TEMPO 1806/1809 2000 BR BKN002 BECMG 1807/1809 9999 NSW SCT030 LDSP 171930Z 32003KT 9999 VCTS FEW030CB SCT055 23/21 Q1012 TEMPO TSRA =
LDSP 171725Z 1718/1818 VRB02KT 9999 FEW040 TX25/1812Z TN19/1804Z PROB30 TEMPO 1720/1802 -TSRA FEW030CB BKN040 TEMPO 1802/1808 TSRA SCT025CB BKN040 BECMG 1810/1812 23008KT PROB30 TEMPO 1810/1813 FEW050CB BECMG 1816/1818 27005KT LDDU 171930Z 12006KT 080V160 9999 FEW050 SCT060 22/18 Q1013 RERA TEMPO TSRA FEW030CB =
COR LDDU 171730Z 1718/1818 10007KT CAVOK TX24/1812Z TN19/1804Z PROB30 TEMPO 1719/1804 VRB18KT TSRA FEW030CB BKN035 TEMPO 1804/1811 30015KT TSRA SCT030CB BKN035 BECMG 1808/1810 29009KT PROB30 TEMPO 1814/1817 FEW050CB BECMG 1815/1817 10005KT LDPL 171930Z 07009KT 9999 SCT025 19/18 Q1013 BECMG 06012KT =
LDPL 171725Z 1718/1818 06008KT 9999 FEW030 TX24/1813Z TN16/1803Z TEMPO 1718/1809 06012KT BECMG 1812/1814 10005KT LDZD 171930Z 15005KT 9999 SCT040 21/19 Q1012 NOSIG =
LDZD 171725Z 1718/1818 07005KT 9999 FEW040 TX26/1813Z TN16/1804Z PROB30 TEMPO 1718/1800 06010KT -TSRA FEW025CB BKN040 BECMG 1810/1812 28008KT BECMG 1816/1818 VRB02KT LDRI 171930Z 17003KT 9999 FEW020 SCT036 18/15 Q1013 =
LDRI 171725Z 1718/1818 10006KT 9999 SCT030 TX24/1813Z TN16/1803Z PROB40 TEMPO 1718/1800 06012KT LDOS 171930Z 28006KT 9999 -RA FEW010 OVC025 16/15 Q1013 =
LDOS 171725Z 1718/1818 32010KT 9999 SCT045 TX22/1812Z TN13/1803Z PROB40 TEMPO 1718/1800 RA BKN009 OVC030 PROB30 TEMPO 1801/1806 BKN005
TAF
LDZA 171725Z 1718/1818 20004KT 9999 SCT008 SCT045 TX20/1812Z TN12/1804Z PROB30 TEMPO 1722/1802 1500 BCFG BECMG 1723/1802 0200 FG VV001 PROB30 TEMPO 1806/1809 2000 BR BKN002 BECMG 1807/1809 9999 NSW SCT030 =
LDSP 171725Z 1718/1818 VRB02KT 9999 FEW040 TX25/1812Z TN19/1804Z PROB30 TEMPO 1720/1802 -TSRA FEW030CB BKN040 TEMPO 1802/1808 TSRA SCT025CB BKN040 BECMG 1810/1812 23008KT PROB30 TEMPO 1810/1813 FEW050CB BECMG 1816/1818 27005KT =
COR LDDU 171730Z 1718/1818 10007KT CAVOK TX24/1812Z TN19/1804Z PROB30 TEMPO 1719/1804 VRB18KT TSRA FEW030CB BKN035 TEMPO 1804/1811 30015KT TSRA SCT030CB BKN035 BECMG 1808/1810 29009KT PROB30 TEMPO 1814/1817 FEW050CB BECMG 1815/1817 10005KT =
LDPL 171725Z 1718/1818 06008KT 9999 FEW030 TX24/1813Z TN16/1803Z TEMPO 1718/1809 06012KT BECMG 1812/1814 10005KT =
LDZD 171725Z 1718/1818 07005KT 9999 FEW040 TX26/1813Z TN16/1804Z PROB30 TEMPO 1718/1800 06010KT -TSRA FEW025CB BKN040 BECMG 1810/1812 28008KT BECMG 1816/1818 VRB02KT =
LDRI 171725Z 1718/1818 10006KT 9999 SCT030 TX24/1813Z TN16/1803Z PROB40 TEMPO 1718/1800 06012KT =
LDOS 171725Z 1718/1818 32010KT 9999 SCT045 TX22/1812Z TN13/1803Z PROB40 TEMPO 1718/1800 RA BKN009 OVC030 PROB30 TEMPO 1801/1806 BKN005 =
SR / SS: 04:37 / 17:02 UTC (Zagreb 2021-09-17)